sensor_id;sensor_type;location;lat;lon;timestamp;P1;durP1;ratioP1;P2;durP2;ratioP2
63157;SDS011;49381;49.338;8.794;2022-08-21T00:00:08;5.90;;;2.30;;
63157;SDS011;49381;49.338;8.794;2022-08-21T00:02:15;3.05;;;2.08;;
63157;SDS011;49381;49.338;8.794;2022-08-21T00:04:16;4.28;;;2.42;;
63157;SDS011;49381;49.338;8.794;2022-08-21T00:06:17;3.25;;;2.00;;
63157;SDS011;49381;49.338;8.794;2022-08-21T00:08:18;4.13;;;2.28;;
63157;SDS011;49381;49.338;8.794;2022-08-21T00:10:21;3.85;;;2.30;;
63157;SDS011;49381;49.338;8.794;2022-08-21T00:12:22;4.40;;;2.13;;
63157;SDS011;49381;49.338;8.794;2022-08-21T00:14:23;4.68;;;1.95;;
63157;SDS011;49381;49.338;8.794;2022-08-21T00:16:23;5.22;;;2.33;;
63157;SDS011;49381;49.338;8.794;2022-08-21T00:18:24;3.35;;;1.88;;
63157;SDS011;49381;49.338;8.794;2022-08-21T00:20:25;4.75;;;2.38;;
63157;SDS011;49381;49.338;8.794;2022-08-21T00:22:26;4.65;;;2.22;;
63157;SDS011;49381;49.338;8.794;2022-08-21T00:24:26;3.50;;;1.98;;
63157;SDS011;49381;49.338;8.794;2022-08-21T00:26:28;3.67;;;1.88;;
63157;SDS011;49381;49.338;8.794;2022-08-21T00:28:28;3.97;;;2.10;;
63157;SDS011;49381;49.338;8.794;2022-08-21T00:30:29;4.00;;;2.20;;
63157;SDS011;49381;49.338;8.794;2022-08-21T00:32:30;3.75;;;2.05;;
63157;SDS011;49381;49.338;8.794;2022-08-21T00:34:30;3.92;;;2.00;;
63157;SDS011;49381;49.338;8.794;2022-08-21T00:36:30;4.40;;;2.42;;
63157;SDS011;49381;49.338;8.794;2022-08-21T00:38:31;4.47;;;2.47;;
63157;SDS011;49381;49.338;8.794;2022-08-21T00:40:32;5.60;;;2.38;;
63157;SDS011;49381;49.338;8.794;2022-08-21T00:42:38;4.68;;;2.47;;
63157;SDS011;49381;49.338;8.794;2022-08-21T00:44:39;6.38;;;3.03;;
63157;SDS011;49381;49.338;8.794;2022-08-21T00:46:39;5.20;;;2.60;;
63157;SDS011;49381;49.338;8.794;2022-08-21T00:48:41;4.82;;;2.55;;
63157;SDS011;49381;49.338;8.794;2022-08-21T00:50:42;3.70;;;2.17;;
63157;SDS011;49381;49.338;8.794;2022-08-21T00:52:46;3.40;;;2.20;;
63157;SDS011;49381;49.338;8.794;2022-08-21T00:54:46;2.88;;;1.90;;
63157;SDS011;49381;49.338;8.794;2022-08-21T00:56:50;6.80;;;3.15;;
63157;SDS011;49381;49.338;8.794;2022-08-21T00:58:54;5.28;;;2.47;;
63157;SDS011;49381;49.338;8.794;2022-08-21T01:00:57;5.00;;;2.55;;
63157;SDS011;49381;49.338;8.794;2022-08-21T01:03:00;6.10;;;2.42;;
63157;SDS011;49381;49.338;8.794;2022-08-21T01:05:02;3.30;;;2.25;;
63157;SDS011;49381;49.338;8.794;2022-08-21T01:07:03;4.28;;;2.65;;
63157;SDS011;49381;49.338;8.794;2022-08-21T01:09:04;5.13;;;2.45;;
63157;SDS011;49381;49.338;8.794;2022-08-21T01:11:05;5.57;;;2.50;;
63157;SDS011;49381;49.338;8.794;2022-08-21T01:13:06;5.00;;;2.40;;
63157;SDS011;49381;49.338;8.794;2022-08-21T01:15:09;4.28;;;2.58;;
63157;SDS011;49381;49.338;8.794;2022-08-21T01:17:14;4.88;;;2.42;;
63157;SDS011;49381;49.338;8.794;2022-08-21T01:19:15;4.75;;;2.40;;
63157;SDS011;49381;49.338;8.794;2022-08-21T01:21:20;5.43;;;2.88;;
63157;SDS011;49381;49.338;8.794;2022-08-21T01:23:22;4.90;;;2.67;;
63157;SDS011;49381;49.338;8.794;2022-08-21T01:25:22;4.50;;;2.35;;
63157;SDS011;49381;49.338;8.794;2022-08-21T01:27:23;4.22;;;2.33;;
63157;SDS011;49381;49.338;8.794;2022-08-21T01:29:26;3.63;;;2.60;;
63157;SDS011;49381;49.338;8.794;2022-08-21T01:31:32;4.43;;;2.72;;
63157;SDS011;49381;49.338;8.794;2022-08-21T01:33:33;3.85;;;2.55;;
63157;SDS011;49381;49.338;8.794;2022-08-21T01:35:34;6.03;;;2.55;;
63157;SDS011;49381;49.338;8.794;2022-08-21T01:37:35;3.65;;;2.00;;
63157;SDS011;49381;49.338;8.794;2022-08-21T01:39:36;2.90;;;2.25;;
63157;SDS011;49381;49.338;8.794;2022-08-21T01:41:37;3.72;;;2.13;;
63157;SDS011;49381;49.338;8.794;2022-08-21T01:43:37;4.28;;;2.33;;
63157;SDS011;49381;49.338;8.794;2022-08-21T01:45:38;9.60;;;2.80;;
63157;SDS011;49381;49.338;8.794;2022-08-21T01:47:38;3.28;;;2.13;;
63157;SDS011;49381;49.338;8.794;2022-08-21T01:49:38;4.65;;;2.20;;
63157;SDS011;49381;49.338;8.794;2022-08-21T01:51:40;3.95;;;2.42;;
63157;SDS011;49381;49.338;8.794;2022-08-21T01:53:41;3.95;;;2.63;;
63157;SDS011;49381;49.338;8.794;2022-08-21T01:55:42;3.65;;;2.45;;
63157;SDS011;49381;49.338;8.794;2022-08-21T01:57:42;3.33;;;2.25;;
63157;SDS011;49381;49.338;8.794;2022-08-21T01:59:43;4.30;;;2.30;;
63157;SDS011;49381;49.338;8.794;2022-08-21T02:01:44;3.05;;;2.05;;
63157;SDS011;49381;49.338;8.794;2022-08-21T02:03:44;5.03;;;2.10;;
63157;SDS011;49381;49.338;8.794;2022-08-21T02:05:45;4.70;;;2.90;;
63157;SDS011;49381;49.338;8.794;2022-08-21T02:07:47;4.22;;;2.50;;
63157;SDS011;49381;49.338;8.794;2022-08-21T02:09:50;5.75;;;2.65;;
63157;SDS011;49381;49.338;8.794;2022-08-21T02:11:51;3.95;;;2.80;;
63157;SDS011;49381;49.338;8.794;2022-08-21T02:13:51;4.60;;;2.47;;
63157;SDS011;49381;49.338;8.794;2022-08-21T02:15:52;8.23;;;3.08;;
63157;SDS011;49381;49.338;8.794;2022-08-21T02:17:53;3.72;;;2.50;;
63157;SDS011;49381;49.338;8.794;2022-08-21T02:19:54;4.28;;;2.75;;
63157;SDS011;49381;49.338;8.794;2022-08-21T02:21:55;4.78;;;2.58;;
63157;SDS011;49381;49.338;8.794;2022-08-21T02:23:55;4.40;;;2.72;;
63157;SDS011;49381;49.338;8.794;2022-08-21T02:25:57;3.67;;;2.25;;
63157;SDS011;49381;49.338;8.794;2022-08-21T02:27:59;4.68;;;2.50;;
63157;SDS011;49381;49.338;8.794;2022-08-21T02:30:03;3.72;;;2.40;;
63157;SDS011;49381;49.338;8.794;2022-08-21T02:32:04;3.63;;;2.28;;
63157;SDS011;49381;49.338;8.794;2022-08-21T02:34:04;4.00;;;2.20;;
63157;SDS011;49381;49.338;8.794;2022-08-21T02:36:05;3.70;;;2.45;;
63157;SDS011;49381;49.338;8.794;2022-08-21T02:38:07;4.70;;;2.65;;
63157;SDS011;49381;49.338;8.794;2022-08-21T02:40:09;3.83;;;2.92;;
63157;SDS011;49381;49.338;8.794;2022-08-21T02:42:11;5.60;;;2.75;;
63157;SDS011;49381;49.338;8.794;2022-08-21T02:44:12;4.18;;;2.55;;
63157;SDS011;49381;49.338;8.794;2022-08-21T02:46:13;3.67;;;2.50;;
63157;SDS011;49381;49.338;8.794;2022-08-21T02:48:17;4.68;;;2.60;;
63157;SDS011;49381;49.338;8.794;2022-08-21T02:50:19;5.32;;;2.88;;
63157;SDS011;49381;49.338;8.794;2022-08-21T02:52:21;4.57;;;2.78;;
63157;SDS011;49381;49.338;8.794;2022-08-21T02:54:21;3.70;;;2.95;;
63157;SDS011;49381;49.338;8.794;2022-08-21T02:56:21;4.55;;;2.47;;
63157;SDS011;49381;49.338;8.794;2022-08-21T02:58:24;4.65;;;2.63;;
63157;SDS011;49381;49.338;8.794;2022-08-21T03:00:27;6.13;;;2.58;;
63157;SDS011;49381;49.338;8.794;2022-08-21T03:02:29;5.25;;;2.83;;
63157;SDS011;49381;49.338;8.794;2022-08-21T03:04:29;4.15;;;2.60;;
63157;SDS011;49381;49.338;8.794;2022-08-21T03:06:29;4.70;;;2.65;;
63157;SDS011;49381;49.338;8.794;2022-08-21T03:08:30;4.95;;;2.78;;
63157;SDS011;49381;49.338;8.794;2022-08-21T03:10:30;4.55;;;2.80;;
63157;SDS011;49381;49.338;8.794;2022-08-21T03:12:30;4.35;;;2.83;;
63157;SDS011;49381;49.338;8.794;2022-08-21T03:14:32;3.92;;;2.53;;
63157;SDS011;49381;49.338;8.794;2022-08-21T03:16:32;5.10;;;2.50;;
63157;SDS011;49381;49.338;8.794;2022-08-21T03:18:33;4.55;;;2.85;;
63157;SDS011;49381;49.338;8.794;2022-08-21T03:20:34;3.92;;;2.85;;
63157;SDS011;49381;49.338;8.794;2022-08-21T03:22:35;5.28;;;2.60;;
63157;SDS011;49381;49.338;8.794;2022-08-21T03:24:36;3.58;;;2.70;;
63157;SDS011;49381;49.338;8.794;2022-08-21T03:26:36;4.80;;;2.67;;
63157;SDS011;49381;49.338;8.794;2022-08-21T03:28:36;3.85;;;2.80;;
63157;SDS011;49381;49.338;8.794;2022-08-21T03:30:38;4.85;;;2.47;;
63157;SDS011;49381;49.338;8.794;2022-08-21T03:32:39;4.05;;;2.53;;
63157;SDS011;49381;49.338;8.794;2022-08-21T03:34:39;5.65;;;2.70;;
63157;SDS011;49381;49.338;8.794;2022-08-21T03:36:40;4.97;;;2.92;;
63157;SDS011;49381;49.338;8.794;2022-08-21T03:38:40;4.47;;;2.35;;
63157;SDS011;49381;49.338;8.794;2022-08-21T03:40:40;4.47;;;2.70;;
63157;SDS011;49381;49.338;8.794;2022-08-21T03:42:41;5.38;;;2.38;;
63157;SDS011;49381;49.338;8.794;2022-08-21T03:44:42;3.88;;;2.45;;
63157;SDS011;49381;49.338;8.794;2022-08-21T03:46:44;4.05;;;2.50;;
63157;SDS011;49381;49.338;8.794;2022-08-21T03:48:45;4.70;;;2.50;;
63157;SDS011;49381;49.338;8.794;2022-08-21T03:50:46;3.10;;;2.20;;
63157;SDS011;49381;49.338;8.794;2022-08-21T03:52:46;4.38;;;2.60;;
63157;SDS011;49381;49.338;8.794;2022-08-21T03:54:46;4.82;;;2.88;;
63157;SDS011;49381;49.338;8.794;2022-08-21T03:56:47;4.45;;;3.30;;
63157;SDS011;49381;49.338;8.794;2022-08-21T03:58:47;4.05;;;2.28;;
63157;SDS011;49381;49.338;8.794;2022-08-21T04:00:51;5.70;;;2.40;;
63157;SDS011;49381;49.338;8.794;2022-08-21T04:02:54;4.35;;;2.78;;
63157;SDS011;49381;49.338;8.794;2022-08-21T04:04:55;4.32;;;3.05;;
63157;SDS011;49381;49.338;8.794;2022-08-21T04:06:55;4.45;;;3.10;;
63157;SDS011;49381;49.338;8.794;2022-08-21T04:08:56;4.85;;;2.67;;
63157;SDS011;49381;49.338;8.794;2022-08-21T04:10:57;4.65;;;3.22;;
63157;SDS011;49381;49.338;8.794;2022-08-21T04:12:58;5.72;;;3.00;;
63157;SDS011;49381;49.338;8.794;2022-08-21T04:14:58;4.95;;;2.90;;
63157;SDS011;49381;49.338;8.794;2022-08-21T04:16:58;4.45;;;2.65;;
63157;SDS011;49381;49.338;8.794;2022-08-21T04:19:00;5.15;;;2.75;;
63157;SDS011;49381;49.338;8.794;2022-08-21T04:21:00;5.70;;;3.10;;
63157;SDS011;49381;49.338;8.794;2022-08-21T04:23:02;5.60;;;2.90;;
63157;SDS011;49381;49.338;8.794;2022-08-21T04:25:03;4.97;;;2.25;;
63157;SDS011;49381;49.338;8.794;2022-08-21T04:27:04;5.03;;;2.80;;
63157;SDS011;49381;49.338;8.794;2022-08-21T04:29:04;4.15;;;2.72;;
63157;SDS011;49381;49.338;8.794;2022-08-21T04:31:05;4.03;;;2.85;;
63157;SDS011;49381;49.338;8.794;2022-08-21T04:33:05;6.20;;;2.78;;
63157;SDS011;49381;49.338;8.794;2022-08-21T04:35:08;4.47;;;2.88;;
63157;SDS011;49381;49.338;8.794;2022-08-21T04:37:10;5.78;;;3.38;;
63157;SDS011;49381;49.338;8.794;2022-08-21T04:39:10;5.20;;;3.50;;
63157;SDS011;49381;49.338;8.794;2022-08-21T04:41:10;5.60;;;3.22;;
63157;SDS011;49381;49.338;8.794;2022-08-21T04:43:12;5.95;;;3.78;;
63157;SDS011;49381;49.338;8.794;2022-08-21T04:45:17;5.55;;;4.00;;
63157;SDS011;49381;49.338;8.794;2022-08-21T04:47:18;9.43;;;4.18;;
63157;SDS011;49381;49.338;8.794;2022-08-21T04:49:19;6.28;;;3.90;;
63157;SDS011;49381;49.338;8.794;2022-08-21T04:51:21;6.68;;;3.83;;
63157;SDS011;49381;49.338;8.794;2022-08-21T04:53:24;5.70;;;3.38;;
63157;SDS011;49381;49.338;8.794;2022-08-21T04:55:30;4.25;;;2.88;;
63157;SDS011;49381;49.338;8.794;2022-08-21T04:57:30;5.55;;;3.30;;
63157;SDS011;49381;49.338;8.794;2022-08-21T04:59:31;5.30;;;2.88;;
63157;SDS011;49381;49.338;8.794;2022-08-21T05:01:36;5.22;;;3.20;;
63157;SDS011;49381;49.338;8.794;2022-08-21T05:03:37;4.90;;;3.05;;
63157;SDS011;49381;49.338;8.794;2022-08-21T05:05:38;6.82;;;3.40;;
63157;SDS011;49381;49.338;8.794;2022-08-21T05:07:41;6.75;;;3.60;;
63157;SDS011;49381;49.338;8.794;2022-08-21T05:09:42;4.60;;;2.95;;
63157;SDS011;49381;49.338;8.794;2022-08-21T05:11:43;5.30;;;3.35;;
63157;SDS011;49381;49.338;8.794;2022-08-21T05:13:44;5.35;;;3.38;;
63157;SDS011;49381;49.338;8.794;2022-08-21T05:15:44;7.93;;;3.38;;
63157;SDS011;49381;49.338;8.794;2022-08-21T05:17:44;4.85;;;2.88;;
63157;SDS011;49381;49.338;8.794;2022-08-21T05:19:44;5.55;;;3.63;;
63157;SDS011;49381;49.338;8.794;2022-08-21T05:21:45;5.82;;;3.50;;
63157;SDS011;49381;49.338;8.794;2022-08-21T05:23:47;5.78;;;3.55;;
63157;SDS011;49381;49.338;8.794;2022-08-21T05:25:47;3.78;;;2.97;;
63157;SDS011;49381;49.338;8.794;2022-08-21T05:27:48;6.63;;;3.65;;
63157;SDS011;49381;49.338;8.794;2022-08-21T05:29:48;6.55;;;4.00;;
63157;SDS011;49381;49.338;8.794;2022-08-21T05:31:48;5.30;;;3.53;;
63157;SDS011;49381;49.338;8.794;2022-08-21T05:33:49;5.72;;;3.17;;
63157;SDS011;49381;49.338;8.794;2022-08-21T05:35:49;5.28;;;3.55;;
63157;SDS011;49381;49.338;8.794;2022-08-21T05:37:50;5.45;;;3.38;;
63157;SDS011;49381;49.338;8.794;2022-08-21T05:39:52;4.88;;;3.10;;
63157;SDS011;49381;49.338;8.794;2022-08-21T05:41:52;5.82;;;3.70;;
63157;SDS011;49381;49.338;8.794;2022-08-21T05:43:52;6.28;;;3.85;;
63157;SDS011;49381;49.338;8.794;2022-08-21T05:45:52;5.18;;;3.50;;
63157;SDS011;49381;49.338;8.794;2022-08-21T05:47:53;5.63;;;4.07;;
63157;SDS011;49381;49.338;8.794;2022-08-21T05:49:53;5.60;;;4.25;;
63157;SDS011;49381;49.338;8.794;2022-08-21T05:51:53;5.32;;;4.07;;
63157;SDS011;49381;49.338;8.794;2022-08-21T05:53:54;6.50;;;3.20;;
63157;SDS011;49381;49.338;8.794;2022-08-21T05:55:55;5.45;;;4.15;;
63157;SDS011;49381;49.338;8.794;2022-08-21T05:57:56;7.22;;;4.82;;
63157;SDS011;49381;49.338;8.794;2022-08-21T05:59:56;5.40;;;3.83;;
63157;SDS011;49381;49.338;8.794;2022-08-21T06:01:56;6.45;;;4.30;;
63157;SDS011;49381;49.338;8.794;2022-08-21T06:03:57;7.32;;;4.25;;
63157;SDS011;49381;49.338;8.794;2022-08-21T06:05:57;5.93;;;4.47;;
63157;SDS011;49381;49.338;8.794;2022-08-21T06:07:58;7.80;;;4.32;;
63157;SDS011;49381;49.338;8.794;2022-08-21T06:09:58;8.35;;;4.60;;
63157;SDS011;49381;49.338;8.794;2022-08-21T06:12:03;7.30;;;4.35;;
63157;SDS011;49381;49.338;8.794;2022-08-21T06:14:04;8.32;;;5.47;;
63157;SDS011;49381;49.338;8.794;2022-08-21T06:16:06;10.05;;;5.25;;
63157;SDS011;49381;49.338;8.794;2022-08-21T06:18:08;7.25;;;4.72;;
63157;SDS011;49381;49.338;8.794;2022-08-21T06:20:09;8.75;;;5.22;;
63157;SDS011;49381;49.338;8.794;2022-08-21T06:22:09;7.00;;;4.30;;
63157;SDS011;49381;49.338;8.794;2022-08-21T06:24:10;6.72;;;4.70;;
63157;SDS011;49381;49.338;8.794;2022-08-21T06:26:11;7.75;;;4.68;;
63157;SDS011;49381;49.338;8.794;2022-08-21T06:28:14;6.95;;;4.65;;
63157;SDS011;49381;49.338;8.794;2022-08-21T06:30:14;7.32;;;4.47;;
63157;SDS011;49381;49.338;8.794;2022-08-21T06:32:15;6.22;;;4.28;;
63157;SDS011;49381;49.338;8.794;2022-08-21T06:34:15;5.53;;;4.25;;
63157;SDS011;49381;49.338;8.794;2022-08-21T06:36:16;8.23;;;4.50;;
63157;SDS011;49381;49.338;8.794;2022-08-21T06:38:17;6.22;;;4.20;;
63157;SDS011;49381;49.338;8.794;2022-08-21T06:40:17;6.85;;;5.00;;
63157;SDS011;49381;49.338;8.794;2022-08-21T06:42:17;7.55;;;4.40;;
63157;SDS011;49381;49.338;8.794;2022-08-21T06:44:19;9.02;;;5.30;;
63157;SDS011;49381;49.338;8.794;2022-08-21T06:46:19;7.65;;;5.13;;
63157;SDS011;49381;49.338;8.794;2022-08-21T06:48:20;6.20;;;3.97;;
63157;SDS011;49381;49.338;8.794;2022-08-21T06:50:20;6.70;;;4.63;;
63157;SDS011;49381;49.338;8.794;2022-08-21T06:52:21;7.85;;;4.43;;
63157;SDS011;49381;49.338;8.794;2022-08-21T06:54:21;7.75;;;5.72;;
63157;SDS011;49381;49.338;8.794;2022-08-21T06:56:21;6.82;;;4.47;;
63157;SDS011;49381;49.338;8.794;2022-08-21T06:58:21;7.65;;;4.43;;
63157;SDS011;49381;49.338;8.794;2022-08-21T07:00:23;8.27;;;4.40;;
63157;SDS011;49381;49.338;8.794;2022-08-21T07:02:24;9.07;;;4.63;;
63157;SDS011;49381;49.338;8.794;2022-08-21T07:04:24;6.90;;;4.85;;
63157;SDS011;49381;49.338;8.794;2022-08-21T07:06:25;6.18;;;4.45;;
63157;SDS011;49381;49.338;8.794;2022-08-21T07:08:25;11.07;;;4.97;;
63157;SDS011;49381;49.338;8.794;2022-08-21T07:10:27;5.70;;;4.32;;
63157;SDS011;49381;49.338;8.794;2022-08-21T07:12:27;7.72;;;4.88;;
63157;SDS011;49381;49.338;8.794;2022-08-21T07:14:28;9.40;;;5.43;;
63157;SDS011;49381;49.338;8.794;2022-08-21T07:16:29;6.95;;;4.25;;
63157;SDS011;49381;49.338;8.794;2022-08-21T07:18:29;6.45;;;4.20;;
63157;SDS011;49381;49.338;8.794;2022-08-21T07:20:30;7.15;;;3.90;;
63157;SDS011;49381;49.338;8.794;2022-08-21T07:22:31;6.53;;;4.53;;
63157;SDS011;49381;49.338;8.794;2022-08-21T07:24:31;8.50;;;5.30;;
63157;SDS011;49381;49.338;8.794;2022-08-21T07:26:31;8.18;;;4.72;;
63157;SDS011;49381;49.338;8.794;2022-08-21T07:28:32;7.88;;;4.18;;
63157;SDS011;49381;49.338;8.794;2022-08-21T07:30:32;7.22;;;4.40;;
63157;SDS011;49381;49.338;8.794;2022-08-21T07:32:34;8.25;;;4.50;;
63157;SDS011;49381;49.338;8.794;2022-08-21T07:34:34;8.65;;;5.20;;
63157;SDS011;49381;49.338;8.794;2022-08-21T07:36:35;11.55;;;5.57;;
63157;SDS011;49381;49.338;8.794;2022-08-21T07:38:35;4.57;;;3.75;;
63157;SDS011;49381;49.338;8.794;2022-08-21T07:40:35;10.63;;;5.43;;
63157;SDS011;49381;49.338;8.794;2022-08-21T07:42:39;7.80;;;5.10;;
63157;SDS011;49381;49.338;8.794;2022-08-21T07:44:39;6.97;;;4.13;;
63157;SDS011;49381;49.338;8.794;2022-08-21T07:46:40;12.07;;;5.32;;
63157;SDS011;49381;49.338;8.794;2022-08-21T07:48:41;6.50;;;4.15;;
63157;SDS011;49381;49.338;8.794;2022-08-21T07:50:42;8.48;;;5.25;;
63157;SDS011;49381;49.338;8.794;2022-08-21T07:52:43;6.40;;;3.92;;
63157;SDS011;49381;49.338;8.794;2022-08-21T07:54:44;9.52;;;4.75;;
63157;SDS011;49381;49.338;8.794;2022-08-21T07:56:44;8.15;;;4.78;;
63157;SDS011;49381;49.338;8.794;2022-08-21T07:58:45;11.48;;;5.00;;
63157;SDS011;49381;49.338;8.794;2022-08-21T08:00:45;11.32;;;5.57;;
63157;SDS011;49381;49.338;8.794;2022-08-21T08:02:46;12.75;;;5.43;;
63157;SDS011;49381;49.338;8.794;2022-08-21T08:04:49;8.02;;;5.00;;
63157;SDS011;49381;49.338;8.794;2022-08-21T08:06:50;9.38;;;4.38;;
63157;SDS011;49381;49.338;8.794;2022-08-21T08:08:50;7.53;;;4.63;;
63157;SDS011;49381;49.338;8.794;2022-08-21T08:10:50;8.32;;;4.38;;
63157;SDS011;49381;49.338;8.794;2022-08-21T08:12:52;6.88;;;4.55;;
63157;SDS011;49381;49.338;8.794;2022-08-21T08:14:52;8.27;;;5.43;;
63157;SDS011;49381;49.338;8.794;2022-08-21T08:16:52;7.47;;;4.93;;
63157;SDS011;49381;49.338;8.794;2022-08-21T08:18:53;8.68;;;3.63;;
63157;SDS011;49381;49.338;8.794;2022-08-21T08:20:54;8.82;;;4.53;;
63157;SDS011;49381;49.338;8.794;2022-08-21T08:22:55;9.13;;;4.93;;
63157;SDS011;49381;49.338;8.794;2022-08-21T08:24:55;7.05;;;4.22;;
63157;SDS011;49381;49.338;8.794;2022-08-21T08:26:55;10.10;;;5.05;;
63157;SDS011;49381;49.338;8.794;2022-08-21T08:28:56;10.32;;;4.40;;
63157;SDS011;49381;49.338;8.794;2022-08-21T08:30:56;8.30;;;3.92;;
63157;SDS011;49381;49.338;8.794;2022-08-21T08:32:56;9.68;;;4.80;;
63157;SDS011;49381;49.338;8.794;2022-08-21T08:34:57;8.98;;;4.25;;
63157;SDS011;49381;49.338;8.794;2022-08-21T08:36:58;7.80;;;3.42;;
63157;SDS011;49381;49.338;8.794;2022-08-21T08:38:59;14.52;;;5.07;;
63157;SDS011;49381;49.338;8.794;2022-08-21T08:41:01;9.27;;;5.20;;
63157;SDS011;49381;49.338;8.794;2022-08-21T08:43:06;10.10;;;4.25;;
63157;SDS011;49381;49.338;8.794;2022-08-21T08:45:07;13.00;;;5.38;;
63157;SDS011;49381;49.338;8.794;2022-08-21T08:47:09;7.78;;;4.28;;
63157;SDS011;49381;49.338;8.794;2022-08-21T08:49:17;11.05;;;5.25;;
63157;SDS011;49381;49.338;8.794;2022-08-21T08:51:21;8.07;;;5.07;;
63157;SDS011;49381;49.338;8.794;2022-08-21T08:53:28;11.40;;;5.03;;
63157;SDS011;49381;49.338;8.794;2022-08-21T08:55:33;14.00;;;5.22;;
63157;SDS011;49381;49.338;8.794;2022-08-21T08:57:36;8.52;;;4.93;;
63157;SDS011;49381;49.338;8.794;2022-08-21T08:59:40;12.90;;;4.57;;
63157;SDS011;49381;49.338;8.794;2022-08-21T09:01:42;8.32;;;3.97;;
63157;SDS011;49381;49.338;8.794;2022-08-21T09:03:43;8.85;;;4.22;;
63157;SDS011;49381;49.338;8.794;2022-08-21T09:05:46;11.93;;;4.60;;
63157;SDS011;49381;49.338;8.794;2022-08-21T09:07:52;7.40;;;3.95;;
63157;SDS011;49381;49.338;8.794;2022-08-21T09:10:13;7.95;;;3.50;;
63157;SDS011;49381;49.338;8.794;2022-08-21T09:12:18;8.35;;;3.53;;
63157;SDS011;49381;49.338;8.794;2022-08-21T09:14:32;9.10;;;3.88;;
63157;SDS011;49381;49.338;8.794;2022-08-21T09:16:47;7.25;;;3.63;;
63157;SDS011;49381;49.338;8.794;2022-08-21T09:18:57;7.18;;;4.13;;
63157;SDS011;49381;49.338;8.794;2022-08-21T09:21:06;11.18;;;4.03;;
63157;SDS011;49381;49.338;8.794;2022-08-21T09:23:21;9.25;;;4.00;;
63157;SDS011;49381;49.338;8.794;2022-08-21T09:25:30;6.88;;;3.97;;
63157;SDS011;49381;49.338;8.794;2022-08-21T09:27:33;9.10;;;4.30;;
63157;SDS011;49381;49.338;8.794;2022-08-21T09:29:35;8.45;;;3.97;;
63157;SDS011;49381;49.338;8.794;2022-08-21T09:31:37;6.70;;;3.40;;
63157;SDS011;49381;49.338;8.794;2022-08-21T09:33:37;5.68;;;3.05;;
63157;SDS011;49381;49.338;8.794;2022-08-21T09:35:47;7.72;;;3.90;;
63157;SDS011;49381;49.338;8.794;2022-08-21T09:37:50;7.82;;;3.70;;
63157;SDS011;49381;49.338;8.794;2022-08-21T09:39:52;8.55;;;4.05;;
63157;SDS011;49381;49.338;8.794;2022-08-21T09:41:58;5.90;;;3.33;;
63157;SDS011;49381;49.338;8.794;2022-08-21T09:44:00;7.75;;;3.75;;
63157;SDS011;49381;49.338;8.794;2022-08-21T09:46:03;8.63;;;3.45;;
63157;SDS011;49381;49.338;8.794;2022-08-21T09:48:11;6.85;;;2.95;;
63157;SDS011;49381;49.338;8.794;2022-08-21T09:50:13;9.15;;;3.53;;
63157;SDS011;49381;49.338;8.794;2022-08-21T09:52:16;8.32;;;3.50;;
63157;SDS011;49381;49.338;8.794;2022-08-21T09:54:18;6.60;;;2.85;;
63157;SDS011;49381;49.338;8.794;2022-08-21T09:56:27;9.35;;;3.70;;
63157;SDS011;49381;49.338;8.794;2022-08-21T09:58:32;7.70;;;3.35;;
63157;SDS011;49381;49.338;8.794;2022-08-21T10:00:34;7.50;;;3.90;;
63157;SDS011;49381;49.338;8.794;2022-08-21T10:02:35;7.43;;;3.28;;
63157;SDS011;49381;49.338;8.794;2022-08-21T10:04:36;8.88;;;3.83;;
63157;SDS011;49381;49.338;8.794;2022-08-21T10:06:36;6.70;;;2.95;;
63157;SDS011;49381;49.338;8.794;2022-08-21T10:08:38;7.15;;;3.00;;
63157;SDS011;49381;49.338;8.794;2022-08-21T10:10:40;10.10;;;3.50;;
63157;SDS011;49381;49.338;8.794;2022-08-21T10:12:44;7.55;;;2.92;;
63157;SDS011;49381;49.338;8.794;2022-08-21T10:14:53;9.80;;;2.95;;
63157;SDS011;49381;49.338;8.794;2022-08-21T10:17:01;5.97;;;2.63;;
63157;SDS011;49381;49.338;8.794;2022-08-21T10:19:11;12.52;;;3.75;;
63157;SDS011;49381;49.338;8.794;2022-08-21T10:21:21;7.85;;;2.83;;
63157;SDS011;49381;49.338;8.794;2022-08-21T10:23:29;6.57;;;2.80;;
63157;SDS011;49381;49.338;8.794;2022-08-21T10:25:41;6.07;;;2.53;;
63157;SDS011;49381;49.338;8.794;2022-08-21T10:27:47;6.55;;;2.92;;
63157;SDS011;49381;49.338;8.794;2022-08-21T10:29:57;6.90;;;2.65;;
63157;SDS011;49381;49.338;8.794;2022-08-21T10:32:03;7.53;;;3.10;;
63157;SDS011;49381;49.338;8.794;2022-08-21T10:34:13;10.57;;;3.13;;
63157;SDS011;49381;49.338;8.794;2022-08-21T10:36:23;8.00;;;3.35;;
63157;SDS011;49381;49.338;8.794;2022-08-21T10:38:51;6.80;;;3.10;;
63157;SDS011;49381;49.338;8.794;2022-08-21T10:40:56;6.28;;;2.70;;
63157;SDS011;49381;49.338;8.794;2022-08-21T10:43:04;6.22;;;3.05;;
63157;SDS011;49381;49.338;8.794;2022-08-21T10:45:19;7.18;;;3.00;;
63157;SDS011;49381;49.338;8.794;2022-08-21T10:47:32;7.25;;;2.90;;
63157;SDS011;49381;49.338;8.794;2022-08-21T10:49:38;7.63;;;2.75;;
63157;SDS011;49381;49.338;8.794;2022-08-21T10:51:44;10.10;;;3.47;;
63157;SDS011;49381;49.338;8.794;2022-08-21T10:53:55;7.55;;;3.40;;
63157;SDS011;49381;49.338;8.794;2022-08-21T10:56:05;8.63;;;3.58;;
63157;SDS011;49381;49.338;8.794;2022-08-21T10:58:17;7.90;;;3.38;;
63157;SDS011;49381;49.338;8.794;2022-08-21T11:00:28;7.82;;;3.15;;
63157;SDS011;49381;49.338;8.794;2022-08-21T11:02:33;8.27;;;3.10;;
63157;SDS011;49381;49.338;8.794;2022-08-21T11:04:48;8.02;;;3.90;;
63157;SDS011;49381;49.338;8.794;2022-08-21T11:06:57;7.18;;;3.80;;
63157;SDS011;49381;49.338;8.794;2022-08-21T11:09:06;8.65;;;2.95;;
63157;SDS011;49381;49.338;8.794;2022-08-21T11:11:12;7.35;;;3.45;;
63157;SDS011;49381;49.338;8.794;2022-08-21T11:13:17;6.18;;;3.88;;
63157;SDS011;49381;49.338;8.794;2022-08-21T11:15:26;7.57;;;3.70;;
63157;SDS011;49381;49.338;8.794;2022-08-21T11:17:34;6.82;;;3.22;;
63157;SDS011;49381;49.338;8.794;2022-08-21T11:19:40;8.73;;;3.33;;
63157;SDS011;49381;49.338;8.794;2022-08-21T11:21:46;9.00;;;3.88;;
63157;SDS011;49381;49.338;8.794;2022-08-21T11:25:55;8.88;;;3.13;;
63157;SDS011;49381;49.338;8.794;2022-08-21T11:28:02;7.85;;;3.20;;
63157;SDS011;49381;49.338;8.794;2022-08-21T11:30:08;7.13;;;3.15;;
63157;SDS011;49381;49.338;8.794;2022-08-21T11:32:18;8.45;;;3.30;;
63157;SDS011;49381;49.338;8.794;2022-08-21T11:34:34;6.93;;;3.03;;
63157;SDS011;49381;49.338;8.794;2022-08-21T11:36:43;5.38;;;2.83;;
63157;SDS011;49381;49.338;8.794;2022-08-21T11:38:52;9.90;;;3.53;;
63157;SDS011;49381;49.338;8.794;2022-08-21T11:41:03;5.93;;;3.13;;
63157;SDS011;49381;49.338;8.794;2022-08-21T11:43:12;7.00;;;3.60;;
63157;SDS011;49381;49.338;8.794;2022-08-21T11:45:19;7.32;;;3.33;;
63157;SDS011;49381;49.338;8.794;2022-08-21T11:47:30;9.13;;;3.97;;
63157;SDS011;49381;49.338;8.794;2022-08-21T11:49:43;7.88;;;3.60;;
63157;SDS011;49381;49.338;8.794;2022-08-21T11:51:53;6.75;;;3.10;;
63157;SDS011;49381;49.338;8.794;2022-08-21T11:54:01;6.10;;;3.22;;
63157;SDS011;49381;49.338;8.794;2022-08-21T11:56:08;5.47;;;3.03;;
63157;SDS011;49381;49.338;8.794;2022-08-21T11:58:15;8.82;;;3.33;;
63157;SDS011;49381;49.338;8.794;2022-08-21T12:00:21;7.07;;;3.28;;
63157;SDS011;49381;49.338;8.794;2022-08-21T12:02:29;6.70;;;3.20;;
63157;SDS011;49381;49.338;8.794;2022-08-21T12:04:34;5.22;;;3.03;;
63157;SDS011;49381;49.338;8.794;2022-08-21T12:06:42;7.68;;;3.10;;
63157;SDS011;49381;49.338;8.794;2022-08-21T12:08:43;8.15;;;3.10;;
63157;SDS011;49381;49.338;8.794;2022-08-21T12:10:46;5.63;;;2.55;;
63157;SDS011;49381;49.338;8.794;2022-08-21T12:13:05;4.80;;;2.60;;
63157;SDS011;49381;49.338;8.794;2022-08-21T12:15:22;6.93;;;2.90;;
63157;SDS011;49381;49.338;8.794;2022-08-21T12:17:34;4.75;;;2.45;;
63157;SDS011;49381;49.338;8.794;2022-08-21T12:19:38;6.32;;;2.67;;
63157;SDS011;49381;49.338;8.794;2022-08-21T12:21:47;5.65;;;2.88;;